Francis Creek, Wisconsin
Current Conditions -  °F | °C
As of 4:56 AM on Monday 22 Dec 2014 (Local Time) from KMTW Reporting Station
Overcast Overcast  
Wind Chill: 28°   Ceiling: 3100
Heat Index: 37°   Visibility: 8mi
Dew Point: 34°   Wind: 16mph
Humidity: 89%   Direction: 170°S
Pressure: 29.94"   Gusts: 22mph
Location:  44.2°N, 87.72°W
Report Text: KMTW 221056Z AUTO 17014G19KT 8SM BKN031 OVC041 03/01 A2994 RMK AO2 SLP163 T00280011
Loading
Personal Weather Stations






























Interactive Weather Map New forecast layout! Learn more

10-Day Weather Forecast

Advertisements
Track Severe Weather on mobile